sensor_id;sensor_type;location;lat;lon;timestamp;pressure;altitude;pressure_sealevel;temperature
15680;BMP180;15488;48.114;11.532;2023-05-07T00:01:19;95313.00;;;21.80
15680;BMP180;15488;48.114;11.532;2023-05-07T00:03:47;95304.00;;;21.80
15680;BMP180;15488;48.114;11.532;2023-05-07T00:06:16;95309.00;;;21.80
15680;BMP180;15488;48.114;11.532;2023-05-07T00:08:44;95308.00;;;21.80
15680;BMP180;15488;48.114;11.532;2023-05-07T00:11:11;95306.00;;;21.80
15680;BMP180;15488;48.114;11.532;2023-05-07T00:13:38;95306.00;;;21.70
15680;BMP180;15488;48.114;11.532;2023-05-07T00:16:06;95307.00;;;21.70
15680;BMP180;15488;48.114;11.532;2023-05-07T00:18:33;95307.00;;;21.70
15680;BMP180;15488;48.114;11.532;2023-05-07T00:21:01;95308.00;;;21.70
15680;BMP180;15488;48.114;11.532;2023-05-07T00:23:30;95304.00;;;21.70
15680;BMP180;15488;48.114;11.532;2023-05-07T00:25:57;95304.00;;;21.70
15680;BMP180;15488;48.114;11.532;2023-05-07T00:28:24;95300.00;;;21.70
15680;BMP180;15488;48.114;11.532;2023-05-07T00:30:52;95303.00;;;21.60
15680;BMP180;15488;48.114;11.532;2023-05-07T00:33:19;95300.00;;;21.60
15680;BMP180;15488;48.114;11.532;2023-05-07T00:35:48;95293.00;;;21.60
15680;BMP180;15488;48.114;11.532;2023-05-07T00:38:16;95293.00;;;21.60
15680;BMP180;15488;48.114;11.532;2023-05-07T00:40:45;95290.00;;;21.60
15680;BMP180;15488;48.114;11.532;2023-05-07T00:43:12;95293.00;;;21.60
15680;BMP180;15488;48.114;11.532;2023-05-07T00:45:40;95288.00;;;21.60
15680;BMP180;15488;48.114;11.532;2023-05-07T00:48:07;95293.00;;;21.60
15680;BMP180;15488;48.114;11.532;2023-05-07T00:50:35;95293.00;;;21.60
15680;BMP180;15488;48.114;11.532;2023-05-07T00:53:02;95295.00;;;21.60
15680;BMP180;15488;48.114;11.532;2023-05-07T00:55:31;95293.00;;;21.60
15680;BMP180;15488;48.114;11.532;2023-05-07T00:58:00;95297.00;;;21.50
15680;BMP180;15488;48.114;11.532;2023-05-07T01:00:27;95295.00;;;21.50
15680;BMP180;15488;48.114;11.532;2023-05-07T01:02:55;95301.00;;;21.50
15680;BMP180;15488;48.114;11.532;2023-05-07T01:05:24;95297.00;;;21.50
15680;BMP180;15488;48.114;11.532;2023-05-07T01:07:54;95300.00;;;21.50
15680;BMP180;15488;48.114;11.532;2023-05-07T01:10:22;95301.00;;;21.50
15680;BMP180;15488;48.114;11.532;2023-05-07T01:12:50;95301.00;;;21.50
15680;BMP180;15488;48.114;11.532;2023-05-07T01:15:20;95297.00;;;21.50
15680;BMP180;15488;48.114;11.532;2023-05-07T01:17:47;95297.00;;;21.50
15680;BMP180;15488;48.114;11.532;2023-05-07T01:20:15;95298.00;;;21.50
15680;BMP180;15488;48.114;11.532;2023-05-07T01:22:44;95293.00;;;21.40
15680;BMP180;15488;48.114;11.532;2023-05-07T01:25:12;95291.00;;;21.50
15680;BMP180;15488;48.114;11.532;2023-05-07T01:27:39;95294.00;;;21.40
15680;BMP180;15488;48.114;11.532;2023-05-07T01:30:07;95290.00;;;21.40
15680;BMP180;15488;48.114;11.532;2023-05-07T01:32:38;95286.00;;;21.40
15680;BMP180;15488;48.114;11.532;2023-05-07T01:35:09;95289.00;;;21.40
15680;BMP180;15488;48.114;11.532;2023-05-07T01:37:38;95285.00;;;21.40
15680;BMP180;15488;48.114;11.532;2023-05-07T01:40:09;95280.00;;;21.40
15680;BMP180;15488;48.114;11.532;2023-05-07T01:42:36;95282.00;;;21.40
15680;BMP180;15488;48.114;11.532;2023-05-07T01:45:05;95282.00;;;21.40
15680;BMP180;15488;48.114;11.532;2023-05-07T01:47:33;95282.00;;;21.40
15680;BMP180;15488;48.114;11.532;2023-05-07T01:50:01;95286.00;;;21.40
15680;BMP180;15488;48.114;11.532;2023-05-07T01:52:28;95278.00;;;21.40
15680;BMP180;15488;48.114;11.532;2023-05-07T01:54:56;95278.00;;;21.30
15680;BMP180;15488;48.114;11.532;2023-05-07T01:57:25;95282.00;;;21.30
15680;BMP180;15488;48.114;11.532;2023-05-07T01:59:52;95285.00;;;21.30
15680;BMP180;15488;48.114;11.532;2023-05-07T02:02:19;95285.00;;;21.30
15680;BMP180;15488;48.114;11.532;2023-05-07T02:04:47;95279.00;;;21.30
15680;BMP180;15488;48.114;11.532;2023-05-07T02:07:14;95280.00;;;21.30
15680;BMP180;15488;48.114;11.532;2023-05-07T02:09:42;95284.00;;;21.30
15680;BMP180;15488;48.114;11.532;2023-05-07T02:12:09;95286.00;;;21.30
15680;BMP180;15488;48.114;11.532;2023-05-07T02:14:38;95286.00;;;21.30
15680;BMP180;15488;48.114;11.532;2023-05-07T02:17:05;95285.00;;;21.30
15680;BMP180;15488;48.114;11.532;2023-05-07T02:19:33;95286.00;;;21.20
15680;BMP180;15488;48.114;11.532;2023-05-07T02:22:01;95289.00;;;21.20
15680;BMP180;15488;48.114;11.532;2023-05-07T02:24:28;95286.00;;;21.20
15680;BMP180;15488;48.114;11.532;2023-05-07T02:26:56;95292.00;;;21.20
15680;BMP180;15488;48.114;11.532;2023-05-07T02:29:23;95288.00;;;21.20
15680;BMP180;15488;48.114;11.532;2023-05-07T02:31:52;95283.00;;;21.20
15680;BMP180;15488;48.114;11.532;2023-05-07T02:34:20;95285.00;;;21.20
15680;BMP180;15488;48.114;11.532;2023-05-07T02:36:47;95292.00;;;21.10
15680;BMP180;15488;48.114;11.532;2023-05-07T02:39:15;95279.00;;;21.10
15680;BMP180;15488;48.114;11.532;2023-05-07T02:41:42;95283.00;;;21.10
15680;BMP180;15488;48.114;11.532;2023-05-07T02:44:10;95285.00;;;21.10
15680;BMP180;15488;48.114;11.532;2023-05-07T02:46:37;95282.00;;;21.10
15680;BMP180;15488;48.114;11.532;2023-05-07T02:49:06;95284.00;;;21.10
15680;BMP180;15488;48.114;11.532;2023-05-07T02:51:33;95288.00;;;21.10
15680;BMP180;15488;48.114;11.532;2023-05-07T02:54:01;95289.00;;;21.00
15680;BMP180;15488;48.114;11.532;2023-05-07T02:56:28;95293.00;;;21.00
15680;BMP180;15488;48.114;11.532;2023-05-07T02:58:56;95294.00;;;21.00
15680;BMP180;15488;48.114;11.532;2023-05-07T03:01:23;95288.00;;;21.00
15680;BMP180;15488;48.114;11.532;2023-05-07T03:03:51;95286.00;;;21.00
15680;BMP180;15488;48.114;11.532;2023-05-07T03:06:20;95286.00;;;21.00
15680;BMP180;15488;48.114;11.532;2023-05-07T03:08:47;95278.00;;;21.00
15680;BMP180;15488;48.114;11.532;2023-05-07T03:11:15;95286.00;;;21.00
15680;BMP180;15488;48.114;11.532;2023-05-07T03:13:42;95282.00;;;21.00
15680;BMP180;15488;48.114;11.532;2023-05-07T03:16:09;95282.00;;;21.00
15680;BMP180;15488;48.114;11.532;2023-05-07T03:18:37;95280.00;;;21.00
15680;BMP180;15488;48.114;11.532;2023-05-07T03:21:04;95280.00;;;20.90
15680;BMP180;15488;48.114;11.532;2023-05-07T03:23:33;95278.00;;;20.90
15680;BMP180;15488;48.114;11.532;2023-05-07T03:26:01;95275.00;;;20.90
15680;BMP180;15488;48.114;11.532;2023-05-07T03:28:28;95274.00;;;20.90
15680;BMP180;15488;48.114;11.532;2023-05-07T03:30:56;95266.00;;;20.90
15680;BMP180;15488;48.114;11.532;2023-05-07T03:33:23;95272.00;;;20.90
15680;BMP180;15488;48.114;11.532;2023-05-07T03:35:51;95273.00;;;20.90
15680;BMP180;15488;48.114;11.532;2023-05-07T03:38:18;95274.00;;;20.90
15680;BMP180;15488;48.114;11.532;2023-05-07T03:40:47;95271.00;;;20.80
15680;BMP180;15488;48.114;11.532;2023-05-07T03:43:14;95273.00;;;20.90
15680;BMP180;15488;48.114;11.532;2023-05-07T03:45:42;95280.00;;;20.80
15680;BMP180;15488;48.114;11.532;2023-05-07T03:48:10;95289.00;;;20.80
15680;BMP180;15488;48.114;11.532;2023-05-07T03:50:38;95277.00;;;20.80
15680;BMP180;15488;48.114;11.532;2023-05-07T03:53:05;95277.00;;;20.80
15680;BMP180;15488;48.114;11.532;2023-05-07T03:55:33;95273.00;;;20.80
15680;BMP180;15488;48.114;11.532;2023-05-07T03:58:03;95275.00;;;20.80
15680;BMP180;15488;48.114;11.532;2023-05-07T04:00:30;95278.00;;;20.70
15680;BMP180;15488;48.114;11.532;2023-05-07T04:02:59;95287.00;;;20.70
15680;BMP180;15488;48.114;11.532;2023-05-07T04:05:27;95288.00;;;20.70
15680;BMP180;15488;48.114;11.532;2023-05-07T04:07:54;95291.00;;;20.70
15680;BMP180;15488;48.114;11.532;2023-05-07T04:10:22;95290.00;;;20.70
15680;BMP180;15488;48.114;11.532;2023-05-07T04:12:49;95294.00;;;20.70
15680;BMP180;15488;48.114;11.532;2023-05-07T04:15:18;95299.00;;;20.70
15680;BMP180;15488;48.114;11.532;2023-05-07T04:17:45;95296.00;;;20.60
15680;BMP180;15488;48.114;11.532;2023-05-07T04:20:15;95302.00;;;20.60
15680;BMP180;15488;48.114;11.532;2023-05-07T04:22:43;95300.00;;;20.60
15680;BMP180;15488;48.114;11.532;2023-05-07T04:25:10;95203.00;;;20.60
15680;BMP180;15488;48.114;11.532;2023-05-07T04:27:38;95304.00;;;20.60
15680;BMP180;15488;48.114;11.532;2023-05-07T04:30:06;95305.00;;;20.60
15680;BMP180;15488;48.114;11.532;2023-05-07T04:32:35;95304.00;;;20.60
15680;BMP180;15488;48.114;11.532;2023-05-07T04:35:03;95306.00;;;20.60
15680;BMP180;15488;48.114;11.532;2023-05-07T04:37:32;95315.00;;;20.60
15680;BMP180;15488;48.114;11.532;2023-05-07T04:40:00;95305.00;;;20.60
15680;BMP180;15488;48.114;11.532;2023-05-07T04:42:27;95305.00;;;20.60
15680;BMP180;15488;48.114;11.532;2023-05-07T04:44:55;95307.00;;;20.60
15680;BMP180;15488;48.114;11.532;2023-05-07T04:47:23;95311.00;;;20.60
15680;BMP180;15488;48.114;11.532;2023-05-07T04:49:52;95310.00;;;20.60
15680;BMP180;15488;48.114;11.532;2023-05-07T04:52:19;95309.00;;;20.60
15680;BMP180;15488;48.114;11.532;2023-05-07T04:54:46;95309.00;;;20.60
15680;BMP180;15488;48.114;11.532;2023-05-07T04:57:14;95314.00;;;20.60
15680;BMP180;15488;48.114;11.532;2023-05-07T04:59:43;95308.00;;;20.60
15680;BMP180;15488;48.114;11.532;2023-05-07T05:02:10;95311.00;;;20.60
15680;BMP180;15488;48.114;11.532;2023-05-07T05:04:38;95315.00;;;20.60
15680;BMP180;15488;48.114;11.532;2023-05-07T05:07:07;95318.00;;;20.60
15680;BMP180;15488;48.114;11.532;2023-05-07T05:09:34;95323.00;;;20.60
15680;BMP180;15488;48.114;11.532;2023-05-07T05:12:02;95319.00;;;20.60
15680;BMP180;15488;48.114;11.532;2023-05-07T05:14:29;95313.00;;;20.60
15680;BMP180;15488;48.114;11.532;2023-05-07T05:16:57;95307.00;;;20.60
15680;BMP180;15488;48.114;11.532;2023-05-07T05:19:24;95309.00;;;20.70
15680;BMP180;15488;48.114;11.532;2023-05-07T05:21:52;95308.00;;;20.70
15680;BMP180;15488;48.114;11.532;2023-05-07T05:24:20;95308.00;;;20.60
15680;BMP180;15488;48.114;11.532;2023-05-07T05:26:48;95311.00;;;20.70
15680;BMP180;15488;48.114;11.532;2023-05-07T05:29:15;95312.00;;;20.70
15680;BMP180;15488;48.114;11.532;2023-05-07T05:31:43;95316.00;;;20.70
15680;BMP180;15488;48.114;11.532;2023-05-07T05:34:10;95311.00;;;20.70
15680;BMP180;15488;48.114;11.532;2023-05-07T05:36:38;95315.00;;;20.70
15680;BMP180;15488;48.114;11.532;2023-05-07T05:39:05;95321.00;;;20.80
15680;BMP180;15488;48.114;11.532;2023-05-07T05:41:34;95317.00;;;20.80
15680;BMP180;15488;48.114;11.532;2023-05-07T05:44:01;95325.00;;;20.80
15680;BMP180;15488;48.114;11.532;2023-05-07T05:46:29;95316.00;;;20.90
15680;BMP180;15488;48.114;11.532;2023-05-07T05:48:56;95316.00;;;20.90
15680;BMP180;15488;48.114;11.532;2023-05-07T05:51:24;95311.00;;;20.90
15680;BMP180;15488;48.114;11.532;2023-05-07T05:53:52;95313.00;;;21.00
15680;BMP180;15488;48.114;11.532;2023-05-07T05:56:20;95316.00;;;21.00
15680;BMP180;15488;48.114;11.532;2023-05-07T05:58:49;95312.00;;;21.00
15680;BMP180;15488;48.114;11.532;2023-05-07T06:01:17;95312.00;;;21.10
15680;BMP180;15488;48.114;11.532;2023-05-07T06:03:45;95317.00;;;21.10
15680;BMP180;15488;48.114;11.532;2023-05-07T06:06:12;95317.00;;;21.20
15680;BMP180;15488;48.114;11.532;2023-05-07T06:08:41;95319.00;;;21.20
15680;BMP180;15488;48.114;11.532;2023-05-07T06:11:09;95316.00;;;21.30
15680;BMP180;15488;48.114;11.532;2023-05-07T06:13:36;95311.00;;;21.30
15680;BMP180;15488;48.114;11.532;2023-05-07T06:16:06;95310.00;;;21.40
15680;BMP180;15488;48.114;11.532;2023-05-07T06:18:34;95310.00;;;21.40
15680;BMP180;15488;48.114;11.532;2023-05-07T06:21:02;95313.00;;;21.50
15680;BMP180;15488;48.114;11.532;2023-05-07T06:23:29;95313.00;;;21.50
15680;BMP180;15488;48.114;11.532;2023-05-07T06:25:57;95308.00;;;21.60
15680;BMP180;15488;48.114;11.532;2023-05-07T06:28:24;95306.00;;;21.60
15680;BMP180;15488;48.114;11.532;2023-05-07T06:30:52;95309.00;;;21.70
15680;BMP180;15488;48.114;11.532;2023-05-07T06:33:21;95316.00;;;21.60
15680;BMP180;15488;48.114;11.532;2023-05-07T06:35:48;95322.00;;;21.80
15680;BMP180;15488;48.114;11.532;2023-05-07T06:38:15;95322.00;;;21.90
15680;BMP180;15488;48.114;11.532;2023-05-07T06:40:43;95322.00;;;21.90
15680;BMP180;15488;48.114;11.532;2023-05-07T06:43:10;95328.00;;;22.00
15680;BMP180;15488;48.114;11.532;2023-05-07T06:45:38;95325.00;;;22.00
15680;BMP180;15488;48.114;11.532;2023-05-07T06:48:05;95332.00;;;22.10
15680;BMP180;15488;48.114;11.532;2023-05-07T06:50:34;95329.00;;;22.20
15680;BMP180;15488;48.114;11.532;2023-05-07T06:53:02;95326.00;;;22.30
15680;BMP180;15488;48.114;11.532;2023-05-07T06:55:29;95328.00;;;22.30
15680;BMP180;15488;48.114;11.532;2023-05-07T06:57:57;95324.00;;;22.40
15680;BMP180;15488;48.114;11.532;2023-05-07T07:00:27;95330.00;;;22.50
15680;BMP180;15488;48.114;11.532;2023-05-07T07:02:54;95332.00;;;22.50
15680;BMP180;15488;48.114;11.532;2023-05-07T07:05:21;95325.00;;;22.60
15680;BMP180;15488;48.114;11.532;2023-05-07T07:07:50;95331.00;;;22.70
15680;BMP180;15488;48.114;11.532;2023-05-07T07:10:19;95329.00;;;22.70
15680;BMP180;15488;48.114;11.532;2023-05-07T07:12:47;95325.00;;;22.80
15680;BMP180;15488;48.114;11.532;2023-05-07T07:15:15;95328.00;;;22.90
15680;BMP180;15488;48.114;11.532;2023-05-07T07:17:42;95330.00;;;22.90
15680;BMP180;15488;48.114;11.532;2023-05-07T07:20:11;95320.00;;;23.00
15680;BMP180;15488;48.114;11.532;2023-05-07T07:22:38;95322.00;;;23.10
15680;BMP180;15488;48.114;11.532;2023-05-07T07:25:08;95325.00;;;23.10
15680;BMP180;15488;48.114;11.532;2023-05-07T07:27:37;95328.00;;;23.20
15680;BMP180;15488;48.114;11.532;2023-05-07T07:30:07;95328.00;;;23.30
15680;BMP180;15488;48.114;11.532;2023-05-07T07:32:34;95333.00;;;23.40
15680;BMP180;15488;48.114;11.532;2023-05-07T07:35:02;95335.00;;;23.40
15680;BMP180;15488;48.114;11.532;2023-05-07T07:37:30;95333.00;;;23.50
15680;BMP180;15488;48.114;11.532;2023-05-07T07:39:58;95331.00;;;23.60
15680;BMP180;15488;48.114;11.532;2023-05-07T07:42:27;95331.00;;;23.60
15680;BMP180;15488;48.114;11.532;2023-05-07T07:44:55;95333.00;;;23.70
15680;BMP180;15488;48.114;11.532;2023-05-07T07:47:23;95335.00;;;23.80
15680;BMP180;15488;48.114;11.532;2023-05-07T07:49:50;95330.00;;;23.90
15680;BMP180;15488;48.114;11.532;2023-05-07T07:52:18;95332.00;;;23.90
15680;BMP180;15488;48.114;11.532;2023-05-07T07:54:46;95334.00;;;24.00
15680;BMP180;15488;48.114;11.532;2023-05-07T07:57:13;95334.00;;;24.10
15680;BMP180;15488;48.114;11.532;2023-05-07T07:59:42;95344.00;;;24.10
15680;BMP180;15488;48.114;11.532;2023-05-07T08:02:09;95336.00;;;24.20
15680;BMP180;15488;48.114;11.532;2023-05-07T08:04:37;95337.00;;;24.20
15680;BMP180;15488;48.114;11.532;2023-05-07T08:07:04;95330.00;;;24.30
15680;BMP180;15488;48.114;11.532;2023-05-07T08:09:32;95340.00;;;24.40
15680;BMP180;15488;48.114;11.532;2023-05-07T08:11:59;95336.00;;;24.40
15680;BMP180;15488;48.114;11.532;2023-05-07T08:14:27;95340.00;;;24.50
15680;BMP180;15488;48.114;11.532;2023-05-07T08:16:57;95339.00;;;24.60
15680;BMP180;15488;48.114;11.532;2023-05-07T08:19:24;95344.00;;;24.60
15680;BMP180;15488;48.114;11.532;2023-05-07T08:21:52;95341.00;;;24.70
15680;BMP180;15488;48.114;11.532;2023-05-07T08:24:19;95343.00;;;24.80
15680;BMP180;15488;48.114;11.532;2023-05-07T08:26:46;95343.00;;;24.80
15680;BMP180;15488;48.114;11.532;2023-05-07T08:29:14;95345.00;;;24.90
15680;BMP180;15488;48.114;11.532;2023-05-07T08:31:41;95342.00;;;24.90
15680;BMP180;15488;48.114;11.532;2023-05-07T08:34:10;95343.00;;;25.00
15680;BMP180;15488;48.114;11.532;2023-05-07T08:36:37;95345.00;;;25.10
15680;BMP180;15488;48.114;11.532;2023-05-07T08:39:07;95347.00;;;25.10
15680;BMP180;15488;48.114;11.532;2023-05-07T08:41:35;95343.00;;;25.20
15680;BMP180;15488;48.114;11.532;2023-05-07T08:44:03;95345.00;;;25.30
15680;BMP180;15488;48.114;11.532;2023-05-07T08:46:33;95348.00;;;25.30
15680;BMP180;15488;48.114;11.532;2023-05-07T08:49:01;95345.00;;;25.40
15680;BMP180;15488;48.114;11.532;2023-05-07T08:51:30;95349.00;;;25.40
15680;BMP180;15488;48.114;11.532;2023-05-07T08:53:58;95349.00;;;25.50
15680;BMP180;15488;48.114;11.532;2023-05-07T08:56:26;95353.00;;;25.50
15680;BMP180;15488;48.114;11.532;2023-05-07T08:58:54;95349.00;;;25.60
15680;BMP180;15488;48.114;11.532;2023-05-07T09:01:22;95348.00;;;25.70
15680;BMP180;15488;48.114;11.532;2023-05-07T09:03:50;95364.00;;;25.70
15680;BMP180;15488;48.114;11.532;2023-05-07T09:06:18;95351.00;;;25.80
15680;BMP180;15488;48.114;11.532;2023-05-07T09:08:53;95355.00;;;25.80
15680;BMP180;15488;48.114;11.532;2023-05-07T09:11:21;95352.00;;;25.90
15680;BMP180;15488;48.114;11.532;2023-05-07T09:13:53;95350.00;;;25.90
15680;BMP180;15488;48.114;11.532;2023-05-07T09:16:21;95356.00;;;26.00
15680;BMP180;15488;48.114;11.532;2023-05-07T09:18:51;95353.00;;;26.00
15680;BMP180;15488;48.114;11.532;2023-05-07T09:21:20;95347.00;;;26.10
15680;BMP180;15488;48.114;11.532;2023-05-07T09:23:50;95342.00;;;26.20
15680;BMP180;15488;48.114;11.532;2023-05-07T09:26:20;95349.00;;;26.20
15680;BMP180;15488;48.114;11.532;2023-05-07T09:28:48;95336.00;;;26.30
15680;BMP180;15488;48.114;11.532;2023-05-07T09:31:15;95335.00;;;26.40
15680;BMP180;15488;48.114;11.532;2023-05-07T09:33:43;95340.00;;;26.40
15680;BMP180;15488;48.114;11.532;2023-05-07T09:36:10;95341.00;;;26.50
15680;BMP180;15488;48.114;11.532;2023-05-07T09:38:38;95332.00;;;26.50
15680;BMP180;15488;48.114;11.532;2023-05-07T09:41:08;95339.00;;;26.60
15680;BMP180;15488;48.114;11.532;2023-05-07T09:43:38;95342.00;;;26.70
15680;BMP180;15488;48.114;11.532;2023-05-07T09:46:12;95345.00;;;26.70
15680;BMP180;15488;48.114;11.532;2023-05-07T09:48:41;95335.00;;;26.80
15680;BMP180;15488;48.114;11.532;2023-05-07T09:51:28;95334.00;;;26.90
15680;BMP180;15488;48.114;11.532;2023-05-07T09:53:57;95335.00;;;26.90
15680;BMP180;15488;48.114;11.532;2023-05-07T09:56:27;95335.00;;;27.00
15680;BMP180;15488;48.114;11.532;2023-05-07T09:59:00;95336.00;;;27.00
15680;BMP180;15488;48.114;11.532;2023-05-07T10:01:29;95335.00;;;27.10
15680;BMP180;15488;48.114;11.532;2023-05-07T10:03:58;95338.00;;;27.20
15680;BMP180;15488;48.114;11.532;2023-05-07T10:06:26;95337.00;;;27.30
15680;BMP180;15488;48.114;11.532;2023-05-07T10:08:55;95336.00;;;27.30
15680;BMP180;15488;48.114;11.532;2023-05-07T10:11:22;95343.00;;;27.40
15680;BMP180;15488;48.114;11.532;2023-05-07T10:13:50;95345.00;;;27.50
15680;BMP180;15488;48.114;11.532;2023-05-07T10:16:21;95343.00;;;27.50
15680;BMP180;15488;48.114;11.532;2023-05-07T10:18:50;95339.00;;;27.60
15680;BMP180;15488;48.114;11.532;2023-05-07T10:21:19;95343.00;;;27.60
15680;BMP180;15488;48.114;11.532;2023-05-07T10:23:50;95353.00;;;27.70
15680;BMP180;15488;48.114;11.532;2023-05-07T10:26:19;95343.00;;;27.70
15680;BMP180;15488;48.114;11.532;2023-05-07T10:28:51;95340.00;;;27.80
15680;BMP180;15488;48.114;11.532;2023-05-07T10:31:44;95340.00;;;27.80
15680;BMP180;15488;48.114;11.532;2023-05-07T10:34:22;95343.00;;;27.90
15680;BMP180;15488;48.114;11.532;2023-05-07T10:36:51;95340.00;;;27.90
15680;BMP180;15488;48.114;11.532;2023-05-07T10:39:21;95275.00;;;27.90
15680;BMP180;15488;48.114;11.532;2023-05-07T10:41:49;95345.00;;;28.00
15680;BMP180;15488;48.114;11.532;2023-05-07T10:44:26;95336.00;;;28.00
15680;BMP180;15488;48.114;11.532;2023-05-07T10:47:06;95341.00;;;28.10
15680;BMP180;15488;48.114;11.532;2023-05-07T10:49:36;95340.00;;;28.20
15680;BMP180;15488;48.114;11.532;2023-05-07T10:52:13;95346.00;;;28.20
15680;BMP180;15488;48.114;11.532;2023-05-07T10:54:42;95347.00;;;28.30
15680;BMP180;15488;48.114;11.532;2023-05-07T10:57:33;95346.00;;;28.40
15680;BMP180;15488;48.114;11.532;2023-05-07T11:00:03;95348.00;;;28.40
15680;BMP180;15488;48.114;11.532;2023-05-07T11:03:08;95336.00;;;28.50
15680;BMP180;15488;48.114;11.532;2023-05-07T11:05:36;95343.00;;;28.50
15680;BMP180;15488;48.114;11.532;2023-05-07T11:08:04;95339.00;;;28.60
15680;BMP180;15488;48.114;11.532;2023-05-07T11:10:51;95342.00;;;28.70
15680;BMP180;15488;48.114;11.532;2023-05-07T11:16:03;95346.00;;;28.70
15680;BMP180;15488;48.114;11.532;2023-05-07T11:21:37;95341.00;;;28.80
15680;BMP180;15488;48.114;11.532;2023-05-07T11:24:06;95338.00;;;28.90
15680;BMP180;15488;48.114;11.532;2023-05-07T11:26:48;95342.00;;;28.90
15680;BMP180;15488;48.114;11.532;2023-05-07T11:29:17;95332.00;;;29.00
15680;BMP180;15488;48.114;11.532;2023-05-07T11:31:49;95335.00;;;29.00
15680;BMP180;15488;48.114;11.532;2023-05-07T11:34:21;95336.00;;;29.10
15680;BMP180;15488;48.114;11.532;2023-05-07T11:36:50;95328.00;;;29.20
15680;BMP180;15488;48.114;11.532;2023-05-07T11:39:25;95319.00;;;29.20
15680;BMP180;15488;48.114;11.532;2023-05-07T11:41:53;95330.00;;;29.30
15680;BMP180;15488;48.114;11.532;2023-05-07T11:44:20;95327.00;;;29.30
15680;BMP180;15488;48.114;11.532;2023-05-07T11:46:48;95324.00;;;29.40
15680;BMP180;15488;48.114;11.532;2023-05-07T11:49:16;95324.00;;;29.40
15680;BMP180;15488;48.114;11.532;2023-05-07T11:51:44;95326.00;;;29.50
15680;BMP180;15488;48.114;11.532;2023-05-07T11:54:16;95329.00;;;29.50
15680;BMP180;15488;48.114;11.532;2023-05-07T11:56:44;95324.00;;;29.60
15680;BMP180;15488;48.114;11.532;2023-05-07T11:59:17;95330.00;;;29.70
15680;BMP180;15488;48.114;11.532;2023-05-07T12:01:46;95330.00;;;29.70
15680;BMP180;15488;48.114;11.532;2023-05-07T12:04:18;95332.00;;;29.80
15680;BMP180;15488;48.114;11.532;2023-05-07T12:06:46;95324.00;;;29.90
15680;BMP180;15488;48.114;11.532;2023-05-07T12:09:15;95320.00;;;29.90
15680;BMP180;15488;48.114;11.532;2023-05-07T12:11:46;95325.00;;;30.00
15680;BMP180;15488;48.114;11.532;2023-05-07T12:14:13;95318.00;;;30.00
15680;BMP180;15488;48.114;11.532;2023-05-07T12:16:42;95314.00;;;30.10
15680;BMP180;15488;48.114;11.532;2023-05-07T12:19:09;95312.00;;;30.20
15680;BMP180;15488;48.114;11.532;2023-05-07T12:21:38;95311.00;;;30.20
15680;BMP180;15488;48.114;11.532;2023-05-07T12:24:07;95313.00;;;30.30
15680;BMP180;15488;48.114;11.532;2023-05-07T12:26:39;95316.00;;;30.40
15680;BMP180;15488;48.114;11.532;2023-05-07T12:29:07;95312.00;;;30.50
15680;BMP180;15488;48.114;11.532;2023-05-07T12:31:34;95309.00;;;30.50
15680;BMP180;15488;48.114;11.532;2023-05-07T12:34:03;95311.00;;;30.60
15680;BMP180;15488;48.114;11.532;2023-05-07T12:36:37;95307.00;;;30.60
15680;BMP180;15488;48.114;11.532;2023-05-07T12:39:05;95309.00;;;30.70
15680;BMP180;15488;48.114;11.532;2023-05-07T12:44:32;95299.00;;;30.80
15680;BMP180;15488;48.114;11.532;2023-05-07T12:47:02;95293.00;;;30.90
15680;BMP180;15488;48.114;11.532;2023-05-07T12:49:29;95292.00;;;30.90
15680;BMP180;15488;48.114;11.532;2023-05-07T12:51:57;95290.00;;;31.00
15680;BMP180;15488;48.114;11.532;2023-05-07T12:54:29;95290.00;;;31.00
15680;BMP180;15488;48.114;11.532;2023-05-07T12:57:07;95292.00;;;31.10
15680;BMP180;15488;48.114;11.532;2023-05-07T12:59:38;95289.00;;;31.10
15680;BMP180;15488;48.114;11.532;2023-05-07T13:02:06;95292.00;;;31.20
15680;BMP180;15488;48.114;11.532;2023-05-07T13:04:33;95298.00;;;31.30
15680;BMP180;15488;48.114;11.532;2023-05-07T13:07:02;95294.00;;;31.40
15680;BMP180;15488;48.114;11.532;2023-05-07T13:09:30;95297.00;;;31.40
15680;BMP180;15488;48.114;11.532;2023-05-07T13:11:58;95300.00;;;31.50
15680;BMP180;15488;48.114;11.532;2023-05-07T13:14:27;95301.00;;;31.60
15680;BMP180;15488;48.114;11.532;2023-05-07T13:16:56;95298.00;;;31.70
15680;BMP180;15488;48.114;11.532;2023-05-07T13:19:23;95304.00;;;31.80
15680;BMP180;15488;48.114;11.532;2023-05-07T13:21:51;95297.00;;;32.00
15680;BMP180;15488;48.114;11.532;2023-05-07T13:24:18;95298.00;;;32.10
15680;BMP180;15488;48.114;11.532;2023-05-07T13:26:46;95303.00;;;32.30
15680;BMP180;15488;48.114;11.532;2023-05-07T13:29:13;95302.00;;;32.60
15680;BMP180;15488;48.114;11.532;2023-05-07T13:31:40;95301.00;;;33.00
15680;BMP180;15488;48.114;11.532;2023-05-07T13:34:11;95296.00;;;33.40
15680;BMP180;15488;48.114;11.532;2023-05-07T13:36:38;95292.00;;;33.70
15680;BMP180;15488;48.114;11.532;2023-05-07T13:39:08;95296.00;;;34.10
15680;BMP180;15488;48.114;11.532;2023-05-07T13:41:35;95301.00;;;34.50
15680;BMP180;15488;48.114;11.532;2023-05-07T13:44:02;95308.00;;;35.00
15680;BMP180;15488;48.114;11.532;2023-05-07T13:46:30;95301.00;;;35.40
15680;BMP180;15488;48.114;11.532;2023-05-07T13:48:58;95293.00;;;35.80
15680;BMP180;15488;48.114;11.532;2023-05-07T13:51:27;95296.00;;;36.20
15680;BMP180;15488;48.114;11.532;2023-05-07T13:53:54;95303.00;;;36.70
15680;BMP180;15488;48.114;11.532;2023-05-07T13:56:21;95303.00;;;37.10
15680;BMP180;15488;48.114;11.532;2023-05-07T13:58:49;95296.00;;;37.40
15680;BMP180;15488;48.114;11.532;2023-05-07T14:01:16;95294.00;;;37.50
15680;BMP180;15488;48.114;11.532;2023-05-07T14:03:44;95299.00;;;37.70
15680;BMP180;15488;48.114;11.532;2023-05-07T14:06:11;95294.00;;;38.00
15680;BMP180;15488;48.114;11.532;2023-05-07T14:08:40;95299.00;;;38.10
15680;BMP180;15488;48.114;11.532;2023-05-07T14:11:07;95294.00;;;38.10
15680;BMP180;15488;48.114;11.532;2023-05-07T14:13:35;95295.00;;;37.90